Terminal Aerodrome Forecast
Issued by NWS Shreveport, LA

Home | Current Version | Previous Version | Text Only | Print | Product List | Glossary On
Versions: 1 2 3 4 5 6 7 8 9 10 11 12
000
FTUS44 KSHV 312342
TAFLFK
TAF
KLFK 312342Z 0100/0124 14011KT P6SM FEW060
     FM010100 15003KT P6SM BKN250
     FM010900 00000KT P6SM BKN150 BKN250
      TEMPO 0112/0114 5SM BR SCT020 OVC150
     FM011400 16004KT P6SM FEW030 BKN120 OVC200
     FM011800 16007KT P6SM BKN050=

USA.gov is the U.S. government's official web portal to all federal, state and local government web resources and services.